createdAt,value
2017-09-24T00:01:35.174Z,98651.20
2017-09-24T00:04:04.291Z,98650.36
2017-09-24T00:06:32.651Z,98649.98
2017-09-24T00:09:01.750Z,98646.13
2017-09-24T00:11:30.860Z,98651.21
2017-09-24T00:13:59.224Z,98650.28
2017-09-24T00:16:28.324Z,98652.03
2017-09-24T00:18:57.426Z,98647.27
2017-09-24T00:21:26.561Z,98648.98
2017-09-24T00:23:54.908Z,98647.28
2017-09-24T00:26:24.019Z,98650.73
2017-09-24T00:28:52.629Z,98647.65
2017-09-24T00:31:20.967Z,98645.02
2017-09-24T00:33:50.072Z,98648.52
2017-09-24T00:36:19.197Z,98649.82
2017-09-24T00:38:47.523Z,98649.95
2017-09-24T00:41:15.859Z,98648.62
2017-09-24T00:43:44.226Z,98650.73
2017-09-24T00:46:12.556Z,98642.05
2017-09-24T00:48:40.901Z,98645.40
2017-09-24T00:51:09.272Z,98647.95
2017-09-24T00:53:37.614Z,98642.41
2017-09-24T00:56:05.944Z,98638.89
2017-09-24T00:58:34.314Z,98646.23
2017-09-24T01:01:02.648Z,98635.59
2017-09-24T01:03:31.007Z,98639.38
2017-09-24T01:05:59.339Z,98638.93
2017-09-24T01:08:27.667Z,98631.20
2017-09-24T01:10:56.032Z,98634.59
2017-09-24T01:13:25.387Z,98632.07
2017-09-24T01:15:54.495Z,98625.25
2017-09-24T01:18:23.623Z,98623.95
2017-09-24T01:20:51.959Z,98620.97
2017-09-24T01:23:21.059Z,98619.22
2017-09-24T01:25:50.178Z,98628.44
2017-09-24T01:28:19.527Z,98625.36
2017-09-24T01:30:47.856Z,98626.73
2017-09-24T01:33:16.345Z,98621.67
2017-09-24T01:35:44.803Z,98619.13
2017-09-24T01:38:13.946Z,98619.88
2017-09-24T01:40:42.391Z,98621.05
2017-09-24T01:43:11.534Z,98617.57
2017-09-24T01:45:39.900Z,98617.53
2017-09-24T01:48:08.340Z,98614.59
2017-09-24T01:50:37.503Z,98607.18
2017-09-24T01:53:05.936Z,98607.70
2017-09-24T01:55:34.450Z,98615.42
2017-09-24T01:58:04.594Z,98613.22
2017-09-24T02:00:33.010Z,98608.98
2017-09-24T02:03:02.144Z,98619.14
2017-09-24T02:05:30.475Z,98620.08
2017-09-24T02:07:58.814Z,98619.25
2017-09-24T02:10:27.175Z,98615.33
2017-09-24T02:12:55.519Z,98614.40
2017-09-24T02:15:23.856Z,98611.85
2017-09-24T02:17:52.215Z,98612.81
2017-09-24T02:20:20.551Z,98609.32
2017-09-24T02:22:48.885Z,98604.55
2017-09-24T02:25:17.255Z,98604.43
2017-09-24T02:27:45.600Z,98601.87
2017-09-24T02:30:13.940Z,98607.97
2017-09-24T02:32:42.295Z,98612.75
2017-09-24T02:35:10.632Z,98611.11
2017-09-24T02:37:38.960Z,98614.55
2017-09-24T02:40:07.316Z,98604.61
2017-09-24T02:42:36.430Z,98609.34
2017-09-24T02:45:05.534Z,98607.25
2017-09-24T02:47:33.895Z,98605.02
2017-09-24T02:50:03.012Z,98611.00
2017-09-24T02:52:31.355Z,98607.51
2017-09-24T02:54:59.720Z,98612.67
2017-09-24T02:57:28.064Z,98613.45
2017-09-24T02:59:56.400Z,98608.72
2017-09-24T03:02:25.616Z,98606.58
2017-09-24T03:04:54.714Z,98604.50
2017-09-24T03:07:23.823Z,98604.98
2017-09-24T03:09:52.184Z,98604.92
2017-09-24T03:12:20.523Z,98606.56
2017-09-24T03:14:48.860Z,98597.55
2017-09-24T03:17:17.990Z,98600.01
2017-09-24T03:19:46.345Z,98600.42
2017-09-24T03:22:14.676Z,98601.64
2017-09-24T03:24:43.061Z,98597.33
2017-09-24T03:27:11.404Z,98594.39
2017-09-24T03:29:39.740Z,98593.91
2017-09-24T03:32:08.113Z,98593.10
2017-09-24T03:34:36.452Z,98591.41
2017-09-24T03:37:04.783Z,98591.87
2017-09-24T03:39:33.912Z,98591.94
2017-09-24T03:42:02.243Z,98596.33
2017-09-24T03:44:30.601Z,98598.07
2017-09-24T03:46:58.967Z,98597.58
2017-09-24T03:49:27.318Z,98598.08
2017-09-24T03:51:55.659Z,98595.59
2017-09-24T03:54:24.015Z,98589.19
2017-09-24T03:56:52.346Z,98593.88
2017-09-24T03:59:21.451Z,98595.18
2017-09-24T04:01:50.588Z,98598.58
2017-09-24T04:04:18.924Z,98597.23
2017-09-24T04:06:48.053Z,98598.09
2017-09-24T04:09:16.453Z,98599.40
2017-09-24T04:11:44.795Z,98601.07
2017-09-24T04:14:13.890Z,98599.84
2017-09-24T04:16:43.025Z,98602.78
2017-09-24T04:19:11.358Z,98600.99
2017-09-24T04:21:40.468Z,98603.59
2017-09-24T04:24:09.589Z,98607.60
2017-09-24T04:26:37.920Z,98604.16
2017-09-24T04:29:06.252Z,98616.58
2017-09-24T04:31:34.620Z,98618.66
2017-09-24T04:34:02.962Z,98614.31
2017-09-24T04:36:31.312Z,98617.39
2017-09-24T04:38:59.688Z,98616.16
2017-09-24T04:41:28.022Z,98619.59
2017-09-24T04:43:57.123Z,98622.14
2017-09-24T04:46:27.497Z,98623.21
2017-09-24T04:48:55.831Z,98625.30
2017-09-24T04:51:24.949Z,98627.39
2017-09-24T04:53:53.321Z,98629.53
2017-09-24T04:56:21.655Z,98628.17
2017-09-24T04:58:49.999Z,98625.13
2017-09-24T05:01:18.359Z,98636.36
2017-09-24T05:03:46.696Z,98627.71
2017-09-24T05:06:15.037Z,98626.50
2017-09-24T05:08:43.406Z,98629.81
2017-09-24T05:11:11.735Z,98622.01
2017-09-24T05:13:40.068Z,98627.53
2017-09-24T05:16:08.423Z,98620.59
2017-09-24T05:18:37.523Z,98629.66
2017-09-24T05:21:06.626Z,98634.44
2017-09-24T05:23:35.749Z,98632.71
2017-09-24T05:26:04.075Z,98637.52
2017-09-24T05:28:32.413Z,98633.98
2017-09-24T05:31:00.782Z,98634.41
2017-09-24T05:33:29.125Z,98633.47
2017-09-24T05:35:58.231Z,98623.17
2017-09-24T05:38:27.355Z,98629.09
2017-09-24T05:40:55.688Z,98632.50
2017-09-24T05:43:24.025Z,98633.38
2017-09-24T05:45:52.383Z,98638.09
2017-09-24T05:48:21.486Z,98643.61
2017-09-24T05:50:50.588Z,98635.06
2017-09-24T05:53:18.948Z,98635.89
2017-09-24T05:55:48.055Z,98643.14
2017-09-24T05:58:17.151Z,98636.28
2017-09-24T06:00:46.283Z,98639.77
2017-09-24T06:03:14.618Z,98637.63
2017-09-24T06:05:42.950Z,98639.36
2017-09-24T06:08:11.321Z,98638.36
2017-09-24T06:10:39.687Z,98637.94
2017-09-24T06:13:08.031Z,98644.33
2017-09-24T06:15:37.203Z,98642.57
2017-09-24T06:18:05.543Z,98636.11
2017-09-24T06:20:33.882Z,98641.31
2017-09-24T06:23:02.255Z,98642.16
2017-09-24T06:25:30.586Z,98646.38
2017-09-24T06:27:58.919Z,98642.50
2017-09-24T06:30:27.289Z,98642.92
2017-09-24T06:32:55.642Z,98648.52
2017-09-24T06:35:23.976Z,98643.33
2017-09-24T06:37:53.120Z,98639.81
2017-09-24T06:40:21.450Z,98643.38
2017-09-24T06:42:50.759Z,98640.01
2017-09-24T06:45:19.214Z,98644.30
2017-09-24T06:47:47.559Z,98645.52
2017-09-24T06:50:15.894Z,98654.06
2017-09-24T06:52:44.259Z,98657.36
2017-09-24T06:55:12.604Z,98653.81
2017-09-24T06:57:40.936Z,98652.92
2017-09-24T07:00:09.295Z,98654.61
2017-09-24T07:02:37.627Z,98652.91
2017-09-24T07:05:05.987Z,98654.50
2017-09-24T07:07:35.146Z,98659.98
2017-09-24T07:10:03.471Z,98664.27
2017-09-24T07:12:32.577Z,98668.14
2017-09-24T07:15:01.703Z,98668.65
2017-09-24T07:17:30.044Z,98671.55
2017-09-24T07:19:59.138Z,98671.92
2017-09-24T07:22:28.272Z,98676.06
2017-09-24T07:24:56.599Z,98677.70
2017-09-24T07:27:24.936Z,98684.91
2017-09-24T07:29:53.304Z,98687.81
2017-09-24T07:32:21.644Z,98690.45
2017-09-24T07:34:49.983Z,98683.03
2017-09-24T07:37:18.566Z,98680.06
2017-09-24T07:39:46.921Z,98685.03
2017-09-24T07:42:15.251Z,98684.65
2017-09-24T07:44:43.621Z,98675.65
2017-09-24T07:47:11.955Z,98685.50
2017-09-24T07:49:41.055Z,98684.01
2017-09-24T07:52:10.182Z,98680.09
2017-09-24T07:54:38.523Z,98683.19
2017-09-24T07:57:07.653Z,98680.23
2017-09-24T07:59:36.041Z,98683.09
2017-09-24T08:02:04.372Z,98679.30
2017-09-24T08:04:32.707Z,98675.91
2017-09-24T08:07:01.077Z,98676.83
2017-09-24T08:09:29.416Z,98680.13
2017-09-24T08:11:58.519Z,98681.03
2017-09-24T08:14:27.655Z,98681.16
2017-09-24T08:16:55.990Z,98675.84
2017-09-24T08:19:24.322Z,98673.94
2017-09-24T08:21:52.683Z,98672.82
2017-09-24T08:24:21.023Z,98677.05
2017-09-24T08:26:49.359Z,98678.11
2017-09-24T08:29:17.724Z,98679.16
2017-09-24T08:31:46.053Z,98680.51
2017-09-24T08:34:14.391Z,98679.83
2017-09-24T08:36:42.751Z,98684.29
2017-09-24T08:39:11.852Z,98679.38
2017-09-24T08:41:40.194Z,98675.20
2017-09-24T08:44:08.561Z,98675.78
2017-09-24T08:46:36.904Z,98684.84
2017-09-24T08:49:05.245Z,98674.48
2017-09-24T08:51:33.602Z,98672.52
2017-09-24T08:54:01.932Z,98674.08
2017-09-24T08:56:30.268Z,98668.23
2017-09-24T08:58:58.923Z,98676.09
2017-09-24T09:01:27.254Z,98675.91
2017-09-24T09:03:56.378Z,98673.55
2017-09-24T09:06:24.757Z,98679.19
2017-09-24T09:08:53.099Z,98681.34
2017-09-24T09:11:21.437Z,98683.34
2017-09-24T09:13:49.807Z,98682.86
2017-09-24T09:16:18.139Z,98678.98
2017-09-24T09:18:46.504Z,98677.18
2017-09-24T09:21:14.895Z,98679.73
2017-09-24T09:23:43.236Z,98675.78
2017-09-24T09:26:11.602Z,98669.56
2017-09-24T09:28:39.960Z,98670.30
2017-09-24T09:31:09.067Z,98671.19
2017-09-24T09:33:38.189Z,98674.29
2017-09-24T09:36:06.560Z,98672.25
2017-09-24T09:38:34.895Z,98670.52
2017-09-24T09:41:03.240Z,98672.20
2017-09-24T09:43:45.558Z,98672.95
2017-09-24T09:59:55.711Z,98663.34
2017-09-24T10:02:24.048Z,98661.58
2017-09-24T10:04:53.164Z,98670.66
2017-09-24T10:07:39.243Z,98671.30
2017-09-24T10:10:16.855Z,98670.48
2017-09-24T10:12:45.988Z,98667.09
2017-09-24T10:15:14.323Z,98670.95
2017-09-24T10:17:44.103Z,98672.95
2017-09-24T10:20:12.468Z,98670.47
2017-09-24T10:22:41.662Z,98673.97
2017-09-24T10:25:10.016Z,98665.03
2017-09-24T10:27:38.380Z,98673.39
2017-09-24T10:30:25.112Z,98674.58
2017-09-24T10:32:53.476Z,98673.55
2017-09-24T10:35:22.578Z,98672.02
2017-09-24T10:37:51.824Z,98677.80
2017-09-24T10:40:20.208Z,98676.95
2017-09-24T10:42:48.551Z,98675.84
2017-09-24T10:45:16.917Z,98674.73
2017-09-24T10:47:46.026Z,98676.11
2017-09-24T10:50:14.355Z,98672.81
2017-09-24T10:52:42.687Z,98678.25
2017-09-24T10:55:11.057Z,98673.50
2017-09-24T10:57:40.152Z,98676.30
2017-09-24T11:00:08.498Z,98679.03
2017-09-24T11:02:36.863Z,98676.47
2017-09-24T11:05:05.191Z,98673.73
2017-09-24T11:07:34.285Z,98668.63
2017-09-24T11:10:03.419Z,98677.02
2017-09-24T11:12:31.755Z,98676.67
2017-09-24T11:15:00.082Z,98678.98
2017-09-24T11:17:28.464Z,98678.78
2017-09-24T11:19:56.803Z,98674.13
2017-09-24T11:22:25.899Z,98676.64
2017-09-24T11:24:55.038Z,98670.61
2017-09-24T11:27:23.367Z,98676.39
2017-09-24T11:29:51.707Z,98672.14
2017-09-24T11:32:20.076Z,98670.55
2017-09-24T11:34:48.402Z,98669.95
2017-09-24T11:37:16.739Z,98667.91
2017-09-24T11:39:45.092Z,98661.02
2017-09-24T11:42:14.194Z,98658.52
2017-09-24T11:44:42.527Z,98657.92
2017-09-24T11:47:10.884Z,98656.66
2017-09-24T11:49:39.231Z,98655.55
2017-09-24T11:52:07.566Z,98652.59
2017-09-24T11:54:36.055Z,98643.42
2017-09-24T11:57:04.396Z,98660.22
2017-09-24T11:59:32.736Z,98656.80
2017-09-24T12:02:01.096Z,98662.91
2017-09-24T12:04:29.456Z,98657.50
2017-09-24T12:06:57.795Z,98658.06
2017-09-24T12:09:26.152Z,98651.98
2017-09-24T12:11:55.263Z,98658.94
2017-09-24T12:14:24.440Z,98658.90
2017-09-24T12:16:52.909Z,98655.95
2017-09-24T12:19:21.339Z,98650.27
2017-09-24T12:21:49.701Z,98651.09
2017-09-24T12:24:18.810Z,98645.97
2017-09-24T12:26:47.931Z,98647.95
2017-09-24T12:29:16.287Z,98641.26
2017-09-24T12:31:45.434Z,98634.63
2017-09-24T12:34:13.899Z,98635.05
2017-09-24T12:36:42.231Z,98636.48
2017-09-24T12:39:10.624Z,98638.88
2017-09-24T12:41:39.715Z,98648.95
2017-09-24T12:44:08.817Z,98648.67
2017-09-24T12:46:37.943Z,98645.86
2017-09-24T12:49:06.272Z,98642.85
2017-09-24T12:51:34.614Z,98639.00
2017-09-24T12:54:02.979Z,98639.00
2017-09-24T12:56:31.307Z,98645.88
2017-09-24T12:58:59.655Z,98632.55
2017-09-24T13:01:28.008Z,98634.45
2017-09-24T13:03:57.106Z,98633.84
2017-09-24T13:06:26.202Z,98637.48
2017-09-24T13:08:55.336Z,98631.31
2017-09-24T13:11:23.673Z,98628.56
2017-09-24T13:13:52.763Z,98629.30
2017-09-24T13:16:21.125Z,98625.17
2017-09-24T13:18:49.455Z,98621.70
2017-09-24T13:21:17.786Z,98620.81
2017-09-24T13:23:46.143Z,98620.42
2017-09-24T13:26:14.511Z,98615.03
2017-09-24T13:28:42.862Z,98621.27
2017-09-24T13:31:11.956Z,98624.23
2017-09-24T13:33:41.054Z,98623.27
2017-09-24T13:36:10.192Z,98623.25
2017-09-24T13:38:38.528Z,98617.40
2017-09-24T13:41:07.620Z,98617.74
2017-09-24T13:43:36.767Z,98614.94
2017-09-24T13:46:05.099Z,98619.33
2017-09-24T13:48:34.204Z,98614.66
2017-09-24T13:51:03.336Z,98620.00
2017-09-24T13:53:31.670Z,98621.22
2017-09-24T13:56:00.781Z,98626.74
2017-09-24T13:58:29.911Z,98625.80
2017-09-24T14:00:58.239Z,98624.58
2017-09-24T14:03:26.591Z,98619.56
2017-09-24T14:05:55.721Z,98626.94
2017-09-24T14:08:24.836Z,98624.34
2017-09-24T14:10:53.939Z,98627.66
2017-09-24T14:13:23.123Z,98617.72
2017-09-24T14:15:52.228Z,98621.02
2017-09-24T14:18:21.328Z,98629.33
2017-09-24T14:20:51.376Z,98627.75
2017-09-24T14:23:19.722Z,98630.07
2017-09-24T14:25:48.827Z,98623.16
2017-09-24T14:28:17.956Z,98627.85
2017-09-24T14:30:46.308Z,98624.70
2017-09-24T14:33:15.403Z,98629.48
2017-09-24T14:35:44.533Z,98628.37
2017-09-24T14:38:12.874Z,98632.03
2017-09-24T14:40:41.972Z,98627.73
2017-09-24T14:43:11.100Z,98629.50
2017-09-24T14:45:39.428Z,98629.55
2017-09-24T14:48:07.784Z,98634.94
2017-09-24T14:50:36.113Z,98633.39
2017-09-24T14:53:05.214Z,98631.58
2017-09-24T14:55:34.354Z,98631.09
2017-09-24T14:58:02.687Z,98629.40
2017-09-24T15:00:31.787Z,98631.91
2017-09-24T15:03:00.908Z,98630.65
2017-09-24T15:05:29.264Z,98626.59
2017-09-24T15:07:58.364Z,98625.09
2017-09-24T15:10:27.459Z,98629.53
2017-09-24T15:12:56.605Z,98626.21
2017-09-24T15:15:24.956Z,98627.76
2017-09-24T15:17:53.300Z,98628.55
2017-09-24T15:20:21.796Z,98627.66
2017-09-24T15:22:52.177Z,98628.03
2017-09-24T15:25:20.545Z,98633.31
2017-09-24T15:27:48.876Z,98632.07
2017-09-24T15:30:17.238Z,98628.33
2017-09-24T15:32:45.564Z,98643.05
2017-09-24T15:35:14.698Z,98637.42
2017-09-24T15:37:43.045Z,98640.84
2017-09-24T15:40:11.387Z,98638.19
2017-09-24T15:42:39.752Z,98640.95
2017-09-24T15:45:08.091Z,98638.89
2017-09-24T15:47:36.440Z,98643.17
2017-09-24T15:50:05.577Z,98643.31
2017-09-24T15:52:33.937Z,98646.85
2017-09-24T15:55:03.033Z,98648.60
2017-09-24T15:57:32.163Z,98649.09
2017-09-24T16:00:00.499Z,98652.64
2017-09-24T16:02:29.623Z,98650.11
2017-09-24T16:04:57.951Z,98656.44
2017-09-24T16:07:26.285Z,98648.42
2017-09-24T16:09:54.645Z,98651.48
2017-09-24T16:12:23.762Z,98653.49
2017-09-24T16:14:52.107Z,98651.28
2017-09-24T16:17:20.472Z,98647.22
2017-09-24T16:19:48.819Z,98658.96
2017-09-24T16:22:17.196Z,98652.20
2017-09-24T16:24:45.536Z,98652.75
2017-09-24T16:27:14.630Z,98657.97
2017-09-24T16:29:43.779Z,98652.96
2017-09-24T16:32:12.112Z,98657.23
2017-09-24T16:34:40.469Z,98651.47
2017-09-24T16:37:08.800Z,98654.67
2017-09-24T16:39:37.143Z,98645.61
2017-09-24T16:42:05.505Z,98654.53
2017-09-24T16:44:33.835Z,98659.48
2017-09-24T16:47:02.168Z,98658.16
2017-09-24T16:49:30.537Z,98655.56
2017-09-24T16:51:58.871Z,98646.39
2017-09-24T16:54:27.978Z,98648.25
2017-09-24T16:56:56.533Z,98652.14
2017-09-24T16:59:24.867Z,98657.84
2017-09-24T17:01:53.208Z,98654.91
2017-09-24T17:04:22.346Z,98651.48
2017-09-24T17:06:50.676Z,98648.95
2017-09-24T17:09:19.007Z,98647.27
2017-09-24T17:11:47.368Z,98654.03
2017-09-24T17:14:15.699Z,98653.45
2017-09-24T17:16:44.069Z,98654.73
2017-09-24T17:19:12.406Z,98655.39
2017-09-24T17:21:40.775Z,98663.93
2017-09-24T17:24:09.887Z,98664.88
2017-09-24T17:26:38.230Z,98664.80
2017-09-24T17:29:06.601Z,98677.46
2017-09-24T17:31:34.980Z,98675.59
2017-09-24T17:34:03.318Z,98673.94
2017-09-24T17:36:31.660Z,98673.50
2017-09-24T17:39:00.792Z,98678.85
2017-09-24T17:41:29.138Z,98678.50
2017-09-24T17:43:58.279Z,98680.42
2017-09-24T17:46:26.626Z,98681.21
2017-09-24T17:48:55.770Z,98679.53
2017-09-24T17:51:24.117Z,98683.01
2017-09-24T17:53:52.464Z,98688.67
2017-09-24T17:56:20.833Z,98685.30
2017-09-24T17:58:49.184Z,98682.88
2017-09-24T18:01:17.533Z,98688.53
2017-09-24T18:03:45.910Z,98690.23
2017-09-24T18:06:15.033Z,98696.78
2017-09-24T18:08:43.366Z,98698.56
2017-09-24T18:11:11.881Z,98692.92
2017-09-24T18:13:40.207Z,98698.23
2017-09-24T18:16:08.597Z,98695.53
2017-09-24T18:18:36.943Z,98703.66
2017-09-24T18:21:05.287Z,98701.09
2017-09-24T18:23:34.425Z,98703.27
2017-09-24T18:26:02.758Z,98705.19
2017-09-24T18:28:31.855Z,98703.17
2017-09-24T18:31:00.985Z,98700.17
2017-09-24T18:33:29.331Z,98696.34
2017-09-24T18:35:58.431Z,98699.79
2017-09-24T18:38:27.586Z,98699.88
2017-09-24T18:40:55.924Z,98703.59
2017-09-24T18:43:25.046Z,98706.63
2017-09-24T18:45:53.408Z,98706.13
2017-09-24T18:48:21.757Z,98702.95
2017-09-24T18:50:50.129Z,98702.59
2017-09-24T18:53:18.536Z,98694.95
2017-09-24T18:55:47.653Z,98701.77
2017-09-24T18:58:15.982Z,98697.41
2017-09-24T19:00:44.347Z,98695.16
2017-09-24T19:03:12.694Z,98699.14
2017-09-24T19:05:41.036Z,98699.22
2017-09-24T19:08:09.388Z,98706.28
2017-09-24T19:10:37.731Z,98698.61
2017-09-24T19:13:06.065Z,98705.13
2017-09-24T19:15:34.430Z,98698.94
2017-09-24T19:18:02.765Z,98693.72
2017-09-24T19:20:31.886Z,98700.09
2017-09-24T19:23:00.250Z,98695.69
2017-09-24T19:25:28.615Z,98702.16
2017-09-24T19:27:57.724Z,98694.84
2017-09-24T19:30:26.859Z,98699.98
2017-09-24T19:32:55.210Z,98697.80
2017-09-24T19:35:23.574Z,98691.78
2017-09-24T19:37:52.683Z,98695.61
2017-09-24T19:40:21.030Z,98696.89
2017-09-24T19:42:49.388Z,98693.02
2017-09-24T19:45:17.749Z,98688.28
2017-09-24T19:47:46.092Z,98690.53
2017-09-24T19:50:15.227Z,98686.70
2017-09-24T19:52:43.571Z,98691.97
2017-09-24T19:55:12.686Z,98694.12
2017-09-24T19:57:41.063Z,98692.82
2017-09-24T20:00:09.405Z,98694.12
2017-09-24T20:02:37.792Z,98701.97
2017-09-24T20:05:06.127Z,98700.08
2017-09-24T20:07:34.481Z,98700.41
2017-09-24T20:10:03.584Z,98699.55
2017-09-24T20:12:31.930Z,98702.99
2017-09-24T20:15:00.293Z,98696.00
2017-09-24T20:17:28.630Z,98696.39
2017-09-24T20:19:56.968Z,98697.83
2017-09-24T20:22:25.323Z,98700.78
2017-09-24T20:24:54.429Z,98694.28
2017-09-24T20:27:22.756Z,98691.77
2017-09-24T20:29:51.888Z,98692.19
2017-09-24T20:32:20.244Z,98692.22
2017-09-24T20:34:48.615Z,98693.86
2017-09-24T20:37:17.041Z,98688.73
2017-09-24T20:39:45.391Z,98687.53
2017-09-24T20:42:13.765Z,98689.63
2017-09-24T20:44:42.102Z,98695.66
2017-09-24T20:47:10.469Z,98688.75
2017-09-24T20:49:38.807Z,98694.06
2017-09-24T20:52:07.147Z,98687.05
2017-09-24T20:54:35.513Z,98689.21
2017-09-24T20:57:03.875Z,98687.08
2017-09-24T20:59:32.223Z,98689.16
2017-09-24T21:02:00.592Z,98684.13
2017-09-24T21:04:29.688Z,98683.70
2017-09-24T21:06:58.787Z,98691.48
2017-09-24T21:09:27.918Z,98684.13
2017-09-24T21:11:56.252Z,98688.24
2017-09-24T21:14:24.591Z,98687.75
2017-09-24T21:16:52.952Z,98683.08
2017-09-24T21:19:21.280Z,98679.45
2017-09-24T21:21:49.628Z,98677.28
2017-09-24T21:24:18.035Z,98679.72
2017-09-24T21:26:46.377Z,98677.63
2017-09-24T21:29:14.738Z,98676.77
2017-09-24T21:31:43.117Z,98682.33
2017-09-24T21:34:11.460Z,98674.69
2017-09-24T21:36:39.794Z,98681.14
2017-09-24T21:39:08.159Z,98681.94
2017-09-24T21:41:37.257Z,98687.88
2017-09-24T21:44:05.665Z,98690.35
2017-09-24T21:46:33.998Z,98692.54
2017-09-24T21:49:03.103Z,98696.55
2017-09-24T21:51:32.245Z,98691.47
2017-09-24T21:54:00.595Z,98686.52
2017-09-24T21:56:28.964Z,98691.16
2017-09-24T21:58:58.072Z,98677.84
2017-09-24T22:01:26.442Z,98687.22
2017-09-24T22:03:55.548Z,98684.58
2017-09-24T22:06:24.646Z,98681.91
2017-09-24T22:08:53.768Z,98672.80
2017-09-24T22:11:22.108Z,98672.94
2017-09-24T22:13:51.240Z,98676.17
2017-09-24T22:16:19.584Z,98677.55
2017-09-24T22:18:47.938Z,98681.26
2017-09-24T22:21:16.304Z,98685.30
2017-09-24T22:23:45.404Z,98680.84
2017-09-24T22:26:13.757Z,98678.98
2017-09-24T22:28:42.123Z,98680.61
2017-09-24T22:31:11.327Z,98674.89
2017-09-24T22:33:40.445Z,98684.68
2017-09-24T22:36:08.807Z,98675.55
2017-09-24T22:38:37.160Z,98682.66
2017-09-24T22:41:05.509Z,98676.98
2017-09-24T22:43:33.875Z,98677.41
2017-09-24T22:46:02.227Z,98673.90
2017-09-24T22:48:30.565Z,98670.40
2017-09-24T22:50:58.945Z,98669.59
2017-09-24T23:08:44.148Z,98666.34
2017-09-24T23:11:14.296Z,98668.64
2017-09-24T23:13:43.402Z,98669.59
2017-09-24T23:16:11.760Z,98673.38
2017-09-24T23:18:40.873Z,98674.64
2017-09-24T23:21:09.224Z,98671.75
2017-09-24T23:23:37.583Z,98666.84
2017-09-24T23:26:05.919Z,98668.91
2017-09-24T23:28:34.267Z,98664.95
2017-09-24T23:31:02.636Z,98668.45
2017-09-24T23:33:30.985Z,98663.75
2017-09-24T23:35:59.335Z,98663.86
2017-09-24T23:38:28.465Z,98664.28
2017-09-24T23:40:56.807Z,98657.68
2017-09-24T23:43:25.903Z,98654.23
2017-09-24T23:45:55.037Z,98647.70
2017-09-24T23:48:23.375Z,98649.75
2017-09-24T23:50:52.476Z,98649.52
2017-09-24T23:53:21.600Z,98648.12
2017-09-24T23:55:49.931Z,98644.14
2017-09-24T23:58:18.275Z,98644.95
